Time;durP1;ratioP1;P1;durP2;ratioP2;P2;SDS_P1;SDS_P2;PMS_P1;PMS_P2;Temp;Humidity;BMP_temperature;BMP_pressure;BME280_temperature;BME280_humidity;BME280_pressure;Samples;Min_cycle;Max_cycle;Signal;HPM_P1;HPM_P2
2021/10/26 00:01:11;;;;;;;1.80;1.02;;;6.10;99.90;;;;;;4443777;32;20065;-67
2021/10/26 00:03:37;;;;;;;0.68;0.68;;;6.10;99.90;;;;;;4444893;32;20599;-66
2021/10/26 00:06:02;;;;;;;0.50;0.50;;;6.10;99.90;;;;;;4444225;32;20081;-67
2021/10/26 00:08:28;;;;;;;1.55;0.85;;;6.00;99.90;;;;;;4443788;32;20072;-67
2021/10/26 00:10:53;;;;;;;6.43;1.73;;;6.00;99.90;;;;;;4443614;32;20079;-66
2021/10/26 00:13:19;;;;;;;0.98;0.98;;;6.00;99.90;;;;;;4445003;32;20522;-67
2021/10/26 00:15:45;;;;;;;2.05;0.95;;;5.90;99.90;;;;;;4442881;32;20074;-67
2021/10/26 00:18:11;;;;;;;1.12;0.98;;;5.90;99.90;;;;;;4444175;32;20072;-67
2021/10/26 00:20:37;;;;;;;0.75;0.75;;;5.80;99.90;;;;;;4443625;32;20073;-66
2021/10/26 00:23:02;;;;;;;0.60;0.60;;;5.80;99.90;;;;;;4443192;32;20470;-66
2021/10/26 00:25:28;;;;;;;5.37;1.20;;;5.80;99.90;;;;;;4442227;32;20074;-67
2021/10/26 00:27:54;;;;;;;0.50;0.50;;;5.80;99.90;;;;;;4443634;32;20127;-67
2021/10/26 00:30:19;;;;;;;0.93;0.60;;;5.90;99.90;;;;;;4442358;32;20065;-67
2021/10/26 00:32:45;;;;;;;3.92;1.55;;;6.00;99.90;;;;;;4439555;32;20077;-67
2021/10/26 00:35:11;;;;;;;5.30;1.58;;;6.00;99.90;;;;;;4433095;32;20123;-66
2021/10/26 00:37:36;;;;;;;2.65;1.87;;;6.10;99.90;;;;;;4444286;32;20089;-67
2021/10/26 00:40:04;;;;;;;1.25;0.90;;;6.10;99.90;;;;;;4443301;32;20111;-67
2021/10/26 00:42:30;;;;;;;0.80;0.77;;;6.00;99.90;;;;;;4442834;32;20076;-66
2021/10/26 00:44:56;;;;;;;0.55;0.55;;;6.10;99.90;;;;;;4443405;32;20116;-66
2021/10/26 00:47:22;;;;;;;11.52;0.90;;;6.30;99.90;;;;;;4442151;32;20065;-66
2021/10/26 00:49:47;;;;;;;0.80;0.80;;;6.30;99.90;;;;;;4447125;32;20163;-67
2021/10/26 00:52:13;;;;;;;0.85;0.82;;;6.20;99.90;;;;;;4447136;32;20503;-67
2021/10/26 00:54:39;;;;;;;7.35;1.37;;;6.20;99.90;;;;;;4447032;32;20127;-67
2021/10/26 00:57:04;;;;;;;0.98;0.77;;;6.30;99.90;;;;;;4446018;32;20412;-66
2021/10/26 00:59:30;;;;;;;0.68;0.68;;;6.40;99.90;;;;;;4446593;32;20085;-67
2021/10/26 01:01:55;;;;;;;0.85;0.85;;;6.40;99.90;;;;;;4446093;32;20502;-66
2021/10/26 01:04:21;;;;;;;25.50;0.98;;;6.40;99.90;;;;;;4446797;32;20057;-67
2021/10/26 01:06:47;;;;;;;1.87;1.12;;;6.50;99.90;;;;;;4445976;32;20073;-67
2021/10/26 01:09:14;;;;;;;0.80;0.80;;;6.60;99.90;;;;;;4446607;32;20065;-66
2021/10/26 01:11:40;;;;;;;0.93;0.93;;;6.60;99.90;;;;;;4445789;32;20201;-67
2021/10/26 01:14:05;;;;;;;0.60;0.60;;;6.60;99.90;;;;;;4447091;32;20153;-67
2021/10/26 01:16:31;;;;;;;2.58;0.85;;;6.60;99.90;;;;;;4446788;32;20439;-67
2021/10/26 01:18:57;;;;;;;1.58;1.37;;;6.70;99.90;;;;;;4445842;32;20145;-67
2021/10/26 01:21:23;;;;;;;0.65;0.65;;;6.70;99.90;;;;;;4445207;32;20066;-66
2021/10/26 01:23:49;;;;;;;0.82;0.65;;;6.80;99.90;;;;;;4446838;32;20068;-66
2021/10/26 01:26:14;;;;;;;0.73;0.73;;;6.90;99.90;;;;;;4446224;32;20149;-67
2021/10/26 01:28:40;;;;;;;0.62;0.62;;;7.00;99.90;;;;;;4446838;32;20420;-67
2021/10/26 01:31:06;;;;;;;1.55;1.15;;;7.00;99.90;;;;;;4445602;32;20069;-67
2021/10/26 01:33:31;;;;;;;3.22;1.37;;;7.20;99.90;;;;;;4434344;32;20061;-67
2021/10/26 01:35:57;;;;;;;2.28;0.85;;;7.10;99.90;;;;;;4430320;32;20082;-67
2021/10/26 01:38:24;;;;;;;0.77;0.77;;;7.00;99.90;;;;;;4445127;32;20081;-67
2021/10/26 01:40:50;;;;;;;0.77;0.77;;;7.10;99.90;;;;;;4446712;32;20064;-67
2021/10/26 01:43:16;;;;;;;12.00;1.02;;;7.10;99.90;;;;;;4446242;32;20657;-66
2021/10/26 01:45:42;;;;;;;8.55;2.78;;;7.10;99.90;;;;;;4446052;32;20068;-66
2021/10/26 01:48:08;;;;;;;7.12;1.60;;;7.00;99.90;;;;;;4446482;32;20115;-66
2021/10/26 01:50:33;;;;;;;0.70;0.70;;;7.10;99.90;;;;;;4445993;32;20432;-66
2021/10/26 01:52:59;;;;;;;1.95;1.00;;;7.10;99.90;;;;;;4445982;32;20069;-66
2021/10/26 01:55:25;;;;;;;0.70;0.70;;;7.20;99.90;;;;;;4444903;32;20130;-66
2021/10/26 01:57:51;;;;;;;0.70;0.70;;;7.20;99.90;;;;;;4444896;32;20065;-66
2021/10/26 02:00:18;;;;;;;0.98;0.90;;;7.00;99.90;;;;;;4443679;32;20073;-66
2021/10/26 02:02:46;;;;;;;0.60;0.60;;;7.00;99.90;;;;;;4446103;32;20085;-67
2021/10/26 02:05:11;;;;;;;1.33;1.02;;;6.90;99.90;;;;;;4445779;32;20120;-67
2021/10/26 02:07:37;;;;;;;0.60;0.60;;;6.90;99.90;;;;;;4444658;32;20776;-66
2021/10/26 02:10:03;;;;;;;1.62;1.15;;;6.90;99.90;;;;;;4445858;32;20060;-66
2021/10/26 02:12:29;;;;;;;3.03;1.12;;;6.90;99.90;;;;;;4445343;32;20522;-67
2021/10/26 02:14:54;;;;;;;0.52;0.52;;;6.90;99.90;;;;;;4444982;32;20210;-66
2021/10/26 02:17:20;;;;;;;0.50;0.50;;;6.90;99.90;;;;;;4445616;32;20069;-66
2021/10/26 02:19:45;;;;;;;0.88;0.88;;;6.90;99.90;;;;;;4446721;32;20454;-67
2021/10/26 02:22:11;;;;;;;0.68;0.68;;;6.90;99.90;;;;;;4445936;32;20065;-66
2021/10/26 02:24:36;;;;;;;1.42;0.98;;;6.80;99.90;;;;;;4443695;32;20476;-67
2021/10/26 02:27:02;;;;;;;0.52;0.52;;;6.80;99.90;;;;;;4444834;32;20112;-66
2021/10/26 02:29:28;;;;;;;0.82;0.82;;;6.90;99.90;;;;;;4444958;32;20094;-67
2021/10/26 02:31:54;;;;;;;0.70;0.70;;;7.00;99.90;;;;;;4445236;32;20070;-67
2021/10/26 02:34:20;;;;;;;0.57;0.57;;;6.90;99.90;;;;;;4444583;32;20280;-67
2021/10/26 02:36:46;;;;;;;0.88;0.88;;;6.80;99.90;;;;;;4444243;32;20065;-67
2021/10/26 02:39:13;;;;;;;0.55;0.55;;;6.80;99.90;;;;;;4444450;32;20130;-67
2021/10/26 02:41:39;;;;;;;0.95;0.82;;;6.70;99.90;;;;;;4431708;32;20514;-67
2021/10/26 02:44:05;;;;;;;1.85;1.25;;;6.40;99.90;;;;;;4445469;32;20115;-66
2021/10/26 02:46:31;;;;;;;6.60;1.60;;;6.30;99.90;;;;;;4431547;32;20065;-66
2021/10/26 02:48:57;;;;;;;0.50;0.50;;;6.30;99.90;;;;;;4443368;32;20085;-66
2021/10/26 02:51:22;;;;;;;0.60;0.60;;;6.30;99.90;;;;;;4444995;32;20085;-66
2021/10/26 02:53:48;;;;;;;0.65;0.65;;;6.20;99.90;;;;;;4444297;32;20123;-66
2021/10/26 02:56:14;;;;;;;0.70;0.70;;;6.10;99.90;;;;;;4445013;32;20073;-67
2021/10/26 02:58:39;;;;;;;3.55;1.27;;;6.20;99.90;;;;;;4445698;32;20116;-66
2021/10/26 03:01:05;;;;;;;4.28;1.48;;;6.20;99.90;;;;;;4445327;32;20065;-67
2021/10/26 03:03:30;;;;;;;2.45;1.50;;;6.40;99.90;;;;;;4445054;32;20080;-66
2021/10/26 03:05:56;;;;;;;1.95;1.05;;;6.50;99.90;;;;;;4444163;32;20069;-66
2021/10/26 03:08:22;;;;;;;0.60;0.60;;;6.60;99.90;;;;;;4445444;32;20060;-67
2021/10/26 03:10:48;;;;;;;0.90;0.90;;;6.60;99.90;;;;;;4445358;32;20467;-67
2021/10/26 03:13:13;;;;;;;0.70;0.70;;;6.70;99.90;;;;;;4430028;32;20308;-66
2021/10/26 03:15:39;;;;;;;0.88;0.55;;;6.70;99.90;;;;;;4445542;32;20119;-66
2021/10/26 03:18:04;;;;;;;0.90;0.90;;;6.50;99.90;;;;;;4445021;32;20515;-66
2021/10/26 03:20:30;;;;;;;1.37;1.27;;;6.60;99.90;;;;;;4445245;32;20089;-66
2021/10/26 03:22:56;;;;;;;0.62;0.60;;;6.50;99.90;;;;;;4445580;32;20064;-67
2021/10/26 03:25:22;;;;;;;2.20;1.00;;;6.50;99.90;;;;;;4444035;32;20073;-67
2021/10/26 03:27:48;;;;;;;0.47;0.47;;;6.60;99.90;;;;;;4443792;32;20065;-66
2021/10/26 03:30:15;;;;;;;0.82;0.82;;;6.80;99.90;;;;;;4444269;32;20422;-66
2021/10/26 03:32:41;;;;;;;3.70;1.23;;;6.70;99.90;;;;;;4441049;32;20101;-66
2021/10/26 03:35:07;;;;;;;1.02;0.93;;;6.60;99.90;;;;;;4427763;32;20069;-66
2021/10/26 03:37:35;;;;;;;0.82;0.77;;;6.50;99.90;;;;;;4439675;32;20522;-66
2021/10/26 03:40:01;;;;;;;0.45;0.45;;;6.70;99.90;;;;;;4443787;32;20392;-67
2021/10/26 03:42:26;;;;;;;0.45;0.45;;;6.90;99.90;;;;;;4444023;32;20084;-66
2021/10/26 03:44:52;;;;;;;1.48;1.20;;;6.90;99.90;;;;;;4442757;32;20057;-67
2021/10/26 03:47:19;;;;;;;1.02;0.88;;;7.00;99.90;;;;;;4442901;32;20078;-67
2021/10/26 03:49:45;;;;;;;0.65;0.65;;;6.90;99.90;;;;;;4444531;32;20089;-67
2021/10/26 03:52:11;;;;;;;0.50;0.50;;;6.90;99.90;;;;;;4442893;32;20405;-66
2021/10/26 03:54:37;;;;;;;0.98;0.90;;;7.00;99.90;;;;;;4443465;32;20072;-66
2021/10/26 03:57:07;;;;;;;0.73;0.73;;;7.10;99.90;;;;;;4444671;32;20065;-67
2021/10/26 03:59:33;;;;;;;0.62;0.62;;;7.10;99.90;;;;;;4444149;32;20061;-66
2021/10/26 04:02:02;;;;;;;1.12;1.12;;;7.10;99.90;;;;;;4444836;32;20072;-67
2021/10/26 04:04:28;;;;;;;0.60;0.60;;;7.20;99.90;;;;;;4445028;32;20061;-67
2021/10/26 04:06:53;;;;;;;0.65;0.65;;;7.20;99.90;;;;;;4444390;32;20569;-67
2021/10/26 04:09:26;;;;;;;0.60;0.60;;;7.20;99.90;;;;;;4444420;32;20078;-67
2021/10/26 04:11:55;;;;;;;1.48;1.37;;;7.20;99.90;;;;;;4443396;32;20061;-67
2021/10/26 04:14:20;;;;;;;3.37;0.70;;;7.30;99.90;;;;;;4444409;32;20068;-67
2021/10/26 04:16:46;;;;;;;0.93;0.82;;;7.30;99.90;;;;;;4443640;32;20085;-67
2021/10/26 04:19:11;;;;;;;1.08;1.02;;;7.30;99.90;;;;;;4443559;32;20060;-66
2021/10/26 04:21:37;;;;;;;1.55;0.80;;;7.20;99.90;;;;;;4435563;32;20069;-67
2021/10/26 04:24:03;;;;;;;1.02;0.82;;;7.20;99.90;;;;;;4440508;32;20064;-67
2021/10/26 04:26:29;;;;;;;1.37;1.20;;;7.10;99.90;;;;;;4415795;32;20069;-67
2021/10/26 04:28:56;;;;;;;1.87;0.65;;;7.20;99.90;;;;;;4442980;32;20462;-66
2021/10/26 04:31:21;;;;;;;1.42;0.95;;;7.30;99.90;;;;;;4441451;32;88600;-66
2021/10/26 04:33:47;;;;;;;0.60;0.60;;;7.20;99.90;;;;;;4430644;32;20384;-66
2021/10/26 04:36:12;;;;;;;1.08;0.88;;;7.10;99.90;;;;;;4428729;32;20061;-66
2021/10/26 04:38:38;;;;;;;2.37;0.88;;;7.20;99.90;;;;;;4442273;32;20057;-67
2021/10/26 04:41:07;;;;;;;2.10;0.80;;;7.20;99.90;;;;;;4443116;32;20050;-66
2021/10/26 04:43:35;;;;;;;2.25;0.82;;;7.30;99.90;;;;;;4443274;32;20073;-66
2021/10/26 04:46:02;;;;;;;0.60;0.60;;;7.40;99.90;;;;;;4443181;32;20108;-67
2021/10/26 04:48:27;;;;;;;0.55;0.50;;;7.50;99.90;;;;;;4442848;32;20069;-66
2021/10/26 04:50:53;;;;;;;29.92;1.33;;;7.50;99.90;;;;;;4444229;32;20112;-66
2021/10/26 04:53:20;;;;;;;1.27;1.10;;;7.50;99.90;;;;;;4443352;32;20432;-67
2021/10/26 04:55:46;;;;;;;0.62;0.62;;;7.50;99.90;;;;;;4429292;32;20057;-67
2021/10/26 04:58:11;;;;;;;1.55;0.52;;;7.50;99.90;;;;;;4443796;32;20057;-67
2021/10/26 05:00:37;;;;;;;1.08;0.82;;;7.50;99.90;;;;;;4438610;32;20510;-66
2021/10/26 05:03:03;;;;;;;1.75;1.00;;;7.50;99.90;;;;;;4433101;32;20061;-66
2021/10/26 05:05:28;;;;;;;2.92;1.10;;;7.60;99.90;;;;;;4439888;32;20471;-66
2021/10/26 05:07:54;;;;;;;3.62;1.67;;;7.60;99.90;;;;;;4441873;32;20579;-66
2021/10/26 05:10:19;;;;;;;1.40;1.10;;;7.70;99.90;;;;;;4443100;32;20082;-67
2021/10/26 05:12:45;;;;;;;2.22;1.10;;;7.60;99.90;;;;;;4436444;32;20068;-68
2021/10/26 05:15:11;;;;;;;0.80;0.80;;;7.50;99.90;;;;;;4442200;32;20761;-66
2021/10/26 05:17:39;;;;;;;1.02;0.98;;;7.50;99.90;;;;;;4425082;32;20110;-66
2021/10/26 05:20:07;;;;;;;1.90;1.12;;;7.60;99.90;;;;;;4440354;32;20518;-66
2021/10/26 05:22:32;;;;;;;1.30;1.12;;;7.60;99.90;;;;;;4442434;32;20065;-66
2021/10/26 05:24:59;;;;;;;0.50;0.50;;;7.60;99.90;;;;;;4442465;32;20116;-66
2021/10/26 05:27:25;;;;;;;0.90;0.90;;;7.70;99.90;;;;;;4426769;32;20073;-66
2021/10/26 05:29:50;;;;;;;0.60;0.60;;;7.70;99.90;;;;;;4435090;32;20455;-67
2021/10/26 05:32:16;;;;;;;0.70;0.70;;;7.70;99.90;;;;;;4414797;32;20068;-66
2021/10/26 05:34:44;;;;;;;0.45;0.45;;;7.80;99.90;;;;;;4438312;32;20541;-66
2021/10/26 05:37:10;;;;;;;2.75;1.45;;;7.80;99.90;;;;;;4439011;32;20126;-66
2021/10/26 05:39:38;;;;;;;1.20;1.10;;;7.80;99.90;;;;;;4436511;32;20070;-66
2021/10/26 05:42:05;;;;;;;1.17;1.00;;;7.70;99.90;;;;;;4433852;32;20384;-67
2021/10/26 05:44:31;;;;;;;1.23;0.77;;;7.80;99.90;;;;;;4430986;32;20502;-66
2021/10/26 05:46:56;;;;;;;2.25;1.20;;;7.90;99.90;;;;;;4432239;32;20068;-66
2021/10/26 05:49:22;;;;;;;0.70;0.70;;;7.90;99.90;;;;;;4437853;32;20855;-67
2021/10/26 05:51:48;;;;;;;0.60;0.60;;;8.00;99.90;;;;;;4435846;32;20115;-68
2021/10/26 05:54:13;;;;;;;0.88;0.88;;;8.00;99.90;;;;;;4435858;32;20150;-67
2021/10/26 05:56:39;;;;;;;2.10;0.93;;;8.00;99.90;;;;;;4429126;32;20069;-66
2021/10/26 05:59:04;;;;;;;15.13;1.40;;;7.90;99.90;;;;;;4431878;32;20073;-66
2021/10/26 06:01:30;;;;;;;0.68;0.68;;;7.90;99.90;;;;;;4425802;32;20669;-67
2021/10/26 06:03:55;;;;;;;12.23;2.35;;;7.90;99.90;;;;;;4435607;32;20061;-66
2021/10/26 06:06:21;;;;;;;1.35;0.68;;;8.00;99.90;;;;;;4428531;32;20058;-67
2021/10/26 06:08:51;;;;;;;0.95;0.77;;;8.00;99.90;;;;;;4425236;32;20110;-67
2021/10/26 06:11:20;;;;;;;2.60;1.52;;;8.10;99.90;;;;;;4422826;32;20085;-67
2021/10/26 06:13:50;;;;;;;0.70;0.70;;;8.10;99.90;;;;;;4418019;32;20077;-67
2021/10/26 06:16:15;;;;;;;0.85;0.85;;;8.20;99.90;;;;;;4423891;32;20061;-68
2021/10/26 06:18:41;;;;;;;4.03;1.27;;;8.20;99.90;;;;;;4433335;32;20115;-67
2021/10/26 06:21:07;;;;;;;0.88;0.62;;;8.30;99.90;;;;;;4431579;32;20811;-67
2021/10/26 06:23:32;;;;;;;1.05;0.93;;;8.30;99.90;;;;;;4430692;32;20859;-66
2021/10/26 06:25:59;;;;;;;1.23;0.73;;;8.40;99.90;;;;;;4430748;32;20076;-66
2021/10/26 06:28:26;;;;;;;46.45;0.90;;;8.40;99.90;;;;;;4428940;32;20570;-67
2021/10/26 06:30:51;;;;;;;7.82;2.90;;;8.40;99.90;;;;;;4422462;32;20140;-66
2021/10/26 06:33:17;;;;;;;1.65;1.35;;;8.40;99.90;;;;;;4420296;32;20824;-66
2021/10/26 06:35:42;;;;;;;0.62;0.62;;;8.50;99.90;;;;;;4416303;32;20223;-66
2021/10/26 06:38:08;;;;;;;1.10;0.80;;;8.50;99.90;;;;;;4413415;32;20100;-67
2021/10/26 06:40:34;;;;;;;1.02;0.93;;;8.60;99.90;;;;;;4417865;32;20069;-67
2021/10/26 06:43:00;;;;;;;0.85;0.73;;;8.60;99.90;;;;;;4407220;32;20608;-66
2021/10/26 06:45:26;;;;;;;0.70;0.70;;;8.70;99.90;;;;;;4415627;32;20069;-67
2021/10/26 06:47:52;;;;;;;0.50;0.50;;;8.70;99.90;;;;;;4413720;32;20077;-67
2021/10/26 06:50:17;;;;;;;0.62;0.60;;;8.70;99.90;;;;;;4392611;32;20314;-67
2021/10/26 06:52:43;;;;;;;1.23;1.05;;;8.70;99.90;;;;;;4414954;32;20076;-67
2021/10/26 06:55:09;;;;;;;1.35;0.98;;;8.80;99.90;;;;;;4412855;32;20101;-67
2021/10/26 06:57:35;;;;;;;0.70;0.70;;;8.80;99.90;;;;;;4410225;32;20093;-67
2021/10/26 07:00:03;;;;;;;0.75;0.75;;;8.80;99.90;;;;;;4411540;32;20113;-67
2021/10/26 07:02:29;;;;;;;1.70;1.02;;;8.80;99.90;;;;;;4413284;32;20641;-67
2021/10/26 07:04:59;;;;;;;1.15;0.90;;;8.80;99.90;;;;;;4418522;32;20089;-66
2021/10/26 07:07:24;;;;;;;0.60;0.60;;;8.80;99.90;;;;;;4425395;32;20138;-66
2021/10/26 07:09:50;;;;;;;0.93;0.93;;;8.90;99.90;;;;;;4416054;32;20510;-66
2021/10/26 07:12:15;;;;;;;0.60;0.60;;;9.00;99.90;;;;;;4424052;32;21764;-66
2021/10/26 07:14:41;;;;;;;0.85;0.65;;;9.00;99.90;;;;;;4429285;32;20597;-67
2021/10/26 07:17:06;;;;;;;0.68;0.68;;;9.10;99.90;;;;;;4430655;32;20161;-66
2021/10/26 07:19:32;;;;;;;1.70;1.48;;;9.10;99.90;;;;;;4427934;32;20156;-66
2021/10/26 07:21:57;;;;;;;1.00;0.90;;;9.20;99.90;;;;;;4423861;32;20264;-65
2021/10/26 07:24:23;;;;;;;0.70;0.70;;;9.30;99.90;;;;;;4426803;32;20081;-65
2021/10/26 07:26:49;;;;;;;4.22;2.03;;;9.30;99.90;;;;;;4431404;32;20061;-65
2021/10/26 07:29:14;;;;;;;5.97;2.20;;;9.30;99.90;;;;;;4428664;32;20415;-66
2021/10/26 07:31:40;;;;;;;0.52;0.52;;;9.30;99.90;;;;;;4422599;32;20093;-65
2021/10/26 07:34:06;;;;;;;1.67;1.55;;;9.30;99.90;;;;;;4423490;32;20089;-65
2021/10/26 07:36:39;;;;;;;0.40;0.40;;;9.30;99.90;;;;;;4426967;32;20106;-65
2021/10/26 07:39:09;;;;;;;1.17;0.90;;;9.30;99.90;;;;;;4427110;32;20439;-66
2021/10/26 07:41:35;;;;;;;4.53;1.42;;;9.40;99.90;;;;;;4434544;32;20171;-66
2021/10/26 07:44:00;;;;;;;0.60;0.60;;;9.40;99.90;;;;;;4435367;32;20762;-66
2021/10/26 07:46:26;;;;;;;2.28;0.80;;;9.50;99.90;;;;;;4433605;32;20233;-66
2021/10/26 07:48:51;;;;;;;0.62;0.62;;;9.50;99.90;;;;;;4432237;32;20509;-65
2021/10/26 07:51:17;;;;;;;0.98;0.95;;;9.60;99.90;;;;;;4429425;32;20077;-65
2021/10/26 07:53:43;;;;;;;2.40;0.90;;;9.60;99.90;;;;;;4431194;32;20587;-66
2021/10/26 07:56:09;;;;;;;1.15;0.68;;;9.70;99.90;;;;;;4424902;32;20105;-66
2021/10/26 07:58:38;;;;;;;0.75;0.75;;;9.70;99.90;;;;;;4424797;32;20138;-66
2021/10/26 08:01:06;;;;;;;4.10;1.10;;;9.70;99.90;;;;;;4424591;32;20097;-66
2021/10/26 08:03:33;;;;;;;5.55;1.00;;;9.90;99.90;;;;;;4430024;32;20115;-66
2021/10/26 08:05:59;;;;;;;1.08;0.98;;;10.00;99.90;;;;;;4435142;32;20606;-66
2021/10/26 08:08:24;;;;;;;0.82;0.82;;;10.10;99.90;;;;;;4431966;32;20106;-66
2021/10/26 08:10:50;;;;;;;0.77;0.70;;;10.10;99.90;;;;;;4428609;32;20105;-66
2021/10/26 08:13:16;;;;;;;0.70;0.70;;;10.20;99.90;;;;;;4428957;32;20069;-66
2021/10/26 08:15:41;;;;;;;5.60;1.00;;;10.30;99.90;;;;;;4431661;32;20143;-66
2021/10/26 08:18:07;;;;;;;2.25;1.42;;;10.30;99.90;;;;;;4433307;32;20093;-66
2021/10/26 08:20:32;;;;;;;1.00;0.90;;;10.50;99.90;;;;;;4431810;32;20085;-67
2021/10/26 08:22:58;;;;;;;11.60;3.30;;;10.60;99.90;;;;;;4423189;32;20576;-67
2021/10/26 08:25:27;;;;;;;0.73;0.65;;;10.60;99.90;;;;;;4429988;32;20175;-66
2021/10/26 08:27:55;;;;;;;1.27;0.90;;;10.60;99.90;;;;;;4431380;32;20135;-66
2021/10/26 08:30:36;;;;;;;1.33;1.23;;;10.60;99.90;;;;;;4422302;32;20077;-66
2021/10/26 08:35:30;;;;;;;0.75;0.75;;;10.60;99.90;;;;;;4411554;32;20117;-66
2021/10/26 08:38:00;;;;;;;1.75;1.08;;;10.60;99.90;;;;;;4413830;32;20102;-66
2021/10/26 08:40:28;;;;;;;1.30;0.90;;;10.70;99.90;;;;;;4411179;32;20694;-66
2021/10/26 08:42:54;;;;;;;3.92;0.90;;;10.70;99.90;;;;;;4414239;32;20631;-67
2021/10/26 08:45:22;;;;;;;0.82;0.82;;;10.80;99.90;;;;;;4414242;32;20081;-67
2021/10/26 08:47:48;;;;;;;1.02;0.93;;;10.80;99.90;;;;;;4417403;32;20057;-67
2021/10/26 08:50:14;;;;;;;0.40;0.40;;;10.80;99.90;;;;;;4409488;32;20440;-67
2021/10/26 08:52:42;;;;;;;0.95;0.77;;;10.80;99.90;;;;;;4412444;32;20609;-67
2021/10/26 08:55:08;;;;;;;2.85;0.93;;;10.80;99.90;;;;;;4412165;32;20511;-66
2021/10/26 08:57:34;;;;;;;2.25;1.55;;;10.90;99.90;;;;;;4410818;32;20610;-66
2021/10/26 09:00:05;;;;;;;0.60;0.60;;;10.90;99.90;;;;;;4392170;32;20081;-65
2021/10/26 09:02:33;;;;;;;0.60;0.60;;;10.90;99.90;;;;;;4415295;32;20191;-65
2021/10/26 09:05:08;;;;;;;0.93;0.93;;;11.00;99.90;;;;;;4409759;32;20116;-66
2021/10/26 09:07:34;;;;;;;1.73;0.95;;;11.00;99.90;;;;;;4409196;32;20077;-66
2021/10/26 09:10:13;;;;;;;0.70;0.70;;;11.00;99.90;;;;;;4411032;32;20327;-66
2021/10/26 09:16:42;;;;;;;2.30;1.20;;;11.10;99.90;;;;;;4414171;32;20069;-66
2021/10/26 09:17:55;;;;;;;1.33;0.95;;;11.10;99.90;;;;;;4409503;32;20061;-66
2021/10/26 09:20:24;;;;;;;1.25;1.10;;;11.20;99.90;;;;;;4410638;32;20298;-66
2021/10/26 09:22:54;;;;;;;1.12;0.85;;;11.20;99.90;;;;;;4413713;32;20074;-66
2021/10/26 09:25:30;;;;;;;0.90;0.90;;;11.30;99.90;;;;;;4406545;32;20255;-65
2021/10/26 09:28:08;;;;;;;1.37;0.88;;;11.30;99.90;;;;;;4406091;32;20677;-65
2021/10/26 09:30:33;;;;;;;2.05;1.25;;;11.50;99.90;;;;;;4412719;32;20569;-65
2021/10/26 09:32:59;;;;;;;13.40;1.87;;;11.60;99.90;;;;;;4429780;32;20195;-65
2021/10/26 09:35:25;;;;;;;1.30;1.02;;;11.60;99.90;;;;;;4429035;32;20069;-66
2021/10/26 09:37:56;;;;;;;4.07;1.30;;;11.60;99.90;;;;;;4427108;32;20614;-66
2021/10/26 09:40:35;;;;;;;;;;;11.70;99.90;;;;;;4433554;32;20092;-66
2021/10/26 09:43:06;;;;;;;2.30;0.60;;;11.70;99.90;;;;;;4430828;32;20307;-65
2021/10/26 09:45:32;;;;;;;0.90;0.90;;;11.80;99.90;;;;;;4425226;32;20105;-66
2021/10/26 09:48:09;;;;;;;0.80;0.80;;;11.90;99.90;;;;;;4425407;32;20076;-66
2021/10/26 09:50:34;;;;;;;1.33;0.82;;;12.00;99.90;;;;;;4434878;32;20097;-66
2021/10/26 09:53:04;;;;;;;0.77;0.77;;;12.10;99.90;;;;;;4430181;32;20131;-66
2021/10/26 09:55:36;;;;;;;1.23;1.12;;;12.20;99.90;;;;;;4429706;32;20077;-66
2021/10/26 09:58:05;;;;;;;1.37;1.20;;;12.30;99.90;;;;;;4429844;32;20065;-66
2021/10/26 10:00:34;;;;;;;0.57;0.57;;;12.50;99.90;;;;;;4431432;32;20463;-66
2021/10/26 10:03:06;;;;;;;0.80;0.80;;;12.60;99.90;;;;;;4430668;32;20364;-66
2021/10/26 10:05:34;;;;;;;0.68;0.68;;;12.70;99.90;;;;;;4437738;32;20094;-66
2021/10/26 10:08:22;;;;;;;3.35;1.05;;;12.80;99.90;;;;;;4430964;32;20062;-66
2021/10/26 10:10:50;;;;;;;0.50;0.50;;;12.90;99.90;;;;;;4429367;32;20144;-66
2021/10/26 10:13:15;;;;;;;0.77;0.75;;;13.00;99.90;;;;;;4428986;32;20073;-66
2021/10/26 10:15:45;;;;;;;11.68;2.15;;;13.10;99.90;;;;;;4430240;32;20101;-66
2021/10/26 10:18:15;;;;;;;0.50;0.50;;;13.10;99.90;;;;;;4428278;32;20069;-67
2021/10/26 10:20:40;;;;;;;2.30;0.70;;;13.10;99.90;;;;;;4429545;32;20191;-68
2021/10/26 10:23:06;;;;;;;0.70;0.70;;;13.10;99.90;;;;;;4429020;32;20143;-67
2021/10/26 10:25:32;;;;;;;1.62;0.70;;;13.10;99.90;;;;;;4427949;32;20537;-67
2021/10/26 10:28:01;;;;;;;0.98;0.95;;;13.10;99.90;;;;;;4429158;32;20483;-67
2021/10/26 10:30:27;;;;;;;0.93;0.88;;;13.20;99.90;;;;;;4428582;32;20065;-67
2021/10/26 10:32:52;;;;;;;1.20;0.80;;;13.20;99.90;;;;;;4427973;32;20109;-65
2021/10/26 10:35:18;;;;;;;2.95;1.02;;;13.20;99.90;;;;;;4430752;32;20072;-68
2021/10/26 10:37:48;;;;;;;0.80;0.80;;;13.20;99.90;;;;;;4430071;32;20970;-66
2021/10/26 10:40:23;;;;;;;0.65;0.65;;;13.20;99.90;;;;;;4431056;32;20082;-67
2021/10/26 10:42:51;;;;;;;0.62;0.62;;;13.10;99.90;;;;;;4432716;32;20069;-67
2021/10/26 10:45:23;;;;;;;0.73;0.73;;;13.10;99.90;;;;;;4433169;32;20089;-67
2021/10/26 10:47:50;;;;;;;1.08;0.62;;;13.10;99.90;;;;;;4431731;32;20485;-67
2021/10/26 10:50:36;;;;;;;1.15;0.60;;;13.10;99.90;;;;;;4430617;32;20080;-68
2021/10/26 10:53:20;;;;;;;1.83;1.30;;;13.20;99.90;;;;;;4421956;32;20086;-68
2021/10/26 10:55:50;;;;;;;1.55;0.70;;;13.40;99.90;;;;;;4423821;32;20158;-67
2021/10/26 10:58:39;;;;;;;7.10;1.73;;;13.60;99.90;;;;;;4417826;32;20089;-68
2021/10/26 11:01:25;;;;;;;0.52;0.52;;;13.80;99.90;;;;;;4424348;32;20046;-68
2021/10/26 11:03:53;;;;;;;0.93;0.82;;;13.90;99.90;;;;;;4432802;32;20093;-68
2021/10/26 11:06:41;;;;;;;5.95;1.55;;;13.90;99.90;;;;;;4424080;32;20254;-68
2021/10/26 11:09:31;;;;;;;0.47;0.47;;;13.90;99.90;;;;;;4433974;32;20475;-68
2021/10/26 11:12:20;;;;;;;0.95;0.88;;;13.90;99.90;;;;;;4430590;32;20617;-68
2021/10/26 11:14:51;;;;;;;0.65;0.65;;;13.80;99.90;;;;;;4427038;32;20097;-68
2021/10/26 11:17:41;;;;;;;8.25;1.52;;;13.70;99.90;;;;;;4436772;32;20062;-67
2021/10/26 11:20:09;;;;;;;1.27;1.05;;;13.70;99.90;;;;;;4431975;32;20050;-67
2021/10/26 11:22:51;;;;;;;0.50;0.50;;;13.70;99.90;;;;;;4435875;32;20081;-68
2021/10/26 11:25:20;;;;;;;0.70;0.70;;;13.70;99.90;;;;;;4430503;32;20065;-68
2021/10/26 11:27:46;;;;;;;0.60;0.60;;;13.80;99.90;;;;;;4433635;32;20547;-67
2021/10/26 11:30:32;;;;;;;0.68;0.68;;;13.90;99.90;;;;;;4435051;32;20330;-67
2021/10/26 11:33:16;;;;;;;2.87;0.93;;;13.90;99.90;;;;;;4425870;32;20061;-68
2021/10/26 11:35:50;;;;;;;0.75;0.60;;;13.90;99.90;;;;;;4428685;32;20113;-68
2021/10/26 11:38:19;;;;;;;4.15;1.05;;;13.90;99.90;;;;;;4430573;32;20507;-67
2021/10/26 11:41:10;;;;;;;2.42;0.82;;;13.80;99.90;;;;;;4431553;32;20076;-68
2021/10/26 11:43:45;;;;;;;;;;;13.80;99.90;;;;;;4427005;32;20077;-68
2021/10/26 11:46:14;;;;;;;0.70;0.68;;;13.80;99.90;;;;;;4431131;32;19948;-68
2021/10/26 11:48:47;;;;;;;1.55;1.30;;;13.90;99.90;;;;;;4429780;32;20366;-68
2021/10/26 11:51:33;;;;;;;0.65;0.65;;;14.00;99.90;;;;;;4433468;32;20076;-68
2021/10/26 11:54:04;;;;;;;1.37;1.27;;;14.10;99.90;;;;;;4424153;32;20114;-68
2021/10/26 11:57:06;;;;;;;0.90;0.90;;;14.30;99.90;;;;;;4429513;32;20105;-67
2021/10/26 11:59:34;;;;;;;12.63;1.42;;;14.30;99.90;;;;;;4422367;32;20089;-67
2021/10/26 12:02:05;;;;;;;0.50;0.50;;;14.10;99.90;;;;;;4426120;32;20073;-67
2021/10/26 12:04:35;;;;;;;0.50;0.50;;;14.00;99.90;;;;;;4426527;32;20089;-67
2021/10/26 12:07:06;;;;;;;0.62;0.62;;;13.90;99.90;;;;;;4425821;32;20441;-67
2021/10/26 12:09:35;;;;;;;2.20;0.70;;;13.90;99.90;;;;;;4426824;32;20074;-68
2021/10/26 12:12:07;;;;;;;0.65;0.50;;;13.80;99.90;;;;;;4433681;32;20617;-67
2021/10/26 12:14:35;;;;;;;1.17;0.88;;;13.80;99.90;;;;;;4434402;32;20065;-67
2021/10/26 12:17:22;;;;;;;0.75;0.70;;;13.80;99.90;;;;;;4430468;32;20404;-67
2021/10/26 12:19:50;;;;;;;1.55;1.05;;;13.70;99.90;;;;;;4432901;32;20128;-67
2021/10/26 12:22:25;;;;;;;0.65;0.65;;;13.70;99.90;;;;;;4425939;32;20061;-67
2021/10/26 12:24:54;;;;;;;4.47;0.70;;;13.70;99.90;;;;;;4428043;32;20092;-67
2021/10/26 12:27:32;;;;;;;1.45;0.70;;;13.70;99.90;;;;;;4425659;32;20079;-68
2021/10/26 12:30:09;;;;;;;0.85;0.85;;;13.70;99.90;;;;;;4430383;32;20069;-68
2021/10/26 12:32:35;;;;;;;1.27;1.02;;;13.70;99.90;;;;;;4418425;32;20167;-67
2021/10/26 12:35:00;;;;;;;1.85;1.15;;;13.70;99.90;;;;;;4422420;32;20818;-67
2021/10/26 12:37:32;;;;;;;0.50;0.50;;;13.70;99.90;;;;;;4418694;32;20061;-67
2021/10/26 12:40:01;;;;;;;0.65;0.65;;;13.80;99.90;;;;;;4422680;32;20153;-67
2021/10/26 12:42:37;;;;;;;0.50;0.50;;;13.80;99.90;;;;;;4416208;32;20086;-67
2021/10/26 12:45:05;;;;;;;1.12;0.95;;;13.90;99.90;;;;;;4421432;32;20419;-67
2021/10/26 12:47:59;;;;;;;0.77;0.77;;;14.00;99.90;;;;;;4429627;32;20065;-68
2021/10/26 12:50:30;;;;;;;0.70;0.60;;;14.10;99.90;;;;;;4418311;32;20089;-67
2021/10/26 12:53:18;;;;;;;0.70;0.70;;;14.20;99.90;;;;;;4425392;32;20651;-67
2021/10/26 12:55:49;;;;;;;0.60;0.60;;;14.30;99.90;;;;;;4417374;32;20077;-67
2021/10/26 12:58:30;;;;;;;;;;;14.60;99.90;;;;;;4416701;32;20085;-67
2021/10/26 13:00:56;;;;;;;2.70;1.30;;;14.70;99.90;;;;;;4418399;32;19963;-67
2021/10/26 13:03:23;;;;;;;2.28;0.90;;;14.70;99.90;;;;;;4419192;32;20062;-66